Time;durP1;ratioP1;P1;durP2;ratioP2;P2;SDS_P1;SDS_P2;PMS_P1;PMS_P2;Temp;Humidity;BMP_temperature;BMP_pressure;BME280_temperature;BME280_humidity;BME280_pressure;Samples;Min_cycle;Max_cycle;Signal;HPM_P1;HPM_P2
2022/05/22 00:00:48;;;;;;;24.65;14.73;;;;;;;;;;7332483;19;153758;-17
2022/05/22 00:03:19;;;;;;;24.77;14.32;;;;;;;;;;7327667;19;161890;-17
2022/05/22 00:05:51;;;;;;;24.17;13.88;;;;;;;;;;7331810;19;162535;-17
2022/05/22 00:08:22;;;;;;;25.40;13.48;;;;;;;;;;7332498;19;154027;-17
2022/05/22 00:10:56;;;;;;;25.20;13.77;;;;;;;;;;7328937;19;153564;-17
2022/05/22 00:13:28;;;;;;;23.10;14.75;;;;;;;;;;7331780;19;161981;-17
2022/05/22 00:18:43;;;;;;;24.52;14.80;;;;;;;;;;7331952;19;154190;-21
2022/05/22 00:21:15;;;;;;;24.42;14.35;;;;;;;;;;7332039;19;153682;-17
2022/05/22 00:23:47;;;;;;;21.02;12.75;;;;;;;;;;7331642;19;161823;-18
2022/05/22 00:26:21;;;;;;;24.88;13.88;;;;;;;;;;7331514;19;162348;-17
2022/05/22 00:28:52;;;;;;;23.05;13.90;;;;;;;;;;7331565;19;153663;-17
2022/05/22 00:31:24;;;;;;;19.23;11.95;;;;;;;;;;7331777;19;153615;-18
2022/05/22 00:33:55;;;;;;;22.48;13.13;;;;;;;;;;7330348;19;162208;-17
2022/05/22 00:36:27;;;;;;;22.27;12.10;;;;;;;;;;7331208;19;162135;-18
2022/05/22 00:38:58;;;;;;;21.75;13.05;;;;;;;;;;7330497;19;154129;-18
2022/05/22 00:41:33;;;;;;;19.63;12.18;;;;;;;;;;7330080;19;153438;-18
2022/05/22 00:44:06;;;;;;;27.00;12.98;;;;;;;;;;7331057;19;161853;-17
2022/05/22 00:46:38;;;;;;;23.10;12.40;;;;;;;;;;7331047;19;162580;-18
2022/05/22 00:49:11;;;;;;;20.90;12.95;;;;;;;;;;7331381;19;153762;-17
2022/05/22 00:51:48;;;;;;;20.77;12.88;;;;;;;;;;7330002;19;153615;-18
2022/05/22 00:54:22;;;;;;;21.30;11.50;;;;;;;;;;7330919;19;162241;-17
2022/05/22 00:57:04;;;;;;;21.23;13.25;;;;;;;;;;7331135;19;162381;-17
2022/05/22 00:59:39;;;;;;;19.65;12.25;;;;;;;;;;7330814;19;154001;-17
2022/05/22 01:02:13;;;;;;;20.83;12.50;;;;;;;;;;7334146;19;153793;-18
2022/05/22 01:04:49;;;;;;;22.60;13.55;;;;;;;;;;7332122;19;162024;-18
2022/05/22 01:07:21;;;;;;;19.40;11.63;;;;;;;;;;7332737;19;162637;-18
2022/05/22 01:09:56;;;;;;;19.27;12.07;;;;;;;;;;7330872;19;154059;-19
2022/05/22 01:12:30;;;;;;;22.20;12.88;;;;;;;;;;7333018;19;153787;-18
2022/05/22 01:15:02;;;;;;;21.42;12.65;;;;;;;;;;7331674;19;161861;-19
2022/05/22 01:17:41;;;;;;;19.90;10.77;;;;;;;;;;7331386;19;162632;-19
2022/05/22 01:20:14;;;;;;;18.98;12.20;;;;;;;;;;7333977;19;154113;-19
2022/05/22 01:22:49;;;;;;;18.67;11.43;;;;;;;;;;7332658;19;153741;-19
2022/05/22 01:25:20;;;;;;;20.50;11.13;;;;;;;;;;7333223;19;161963;-18
2022/05/22 01:27:53;;;;;;;16.90;10.93;;;;;;;;;;7331556;19;162460;-19
2022/05/22 01:30:31;;;;;;;19.55;12.80;;;;;;;;;;7332188;19;154168;-19
2022/05/22 01:33:07;;;;;;;18.23;10.90;;;;;;;;;;7332354;19;154095;-19
2022/05/22 01:35:40;;;;;;;19.10;12.13;;;;;;;;;;7331444;19;161879;-19
2022/05/22 01:38:17;;;;;;;16.83;11.25;;;;;;;;;;7331005;19;162342;-19
2022/05/22 01:40:50;;;;;;;20.00;11.93;;;;;;;;;;7332251;19;154360;-18
2022/05/22 01:43:34;;;;;;;20.45;11.75;;;;;;;;;;7330411;19;153803;-19
2022/05/22 01:46:11;;;;;;;19.10;12.50;;;;;;;;;;7331126;19;162013;-18
2022/05/22 01:48:48;;;;;;;18.15;11.63;;;;;;;;;;7331059;19;162458;-19
2022/05/22 01:51:23;;;;;;;18.25;11.35;;;;;;;;;;7331753;19;154431;-19
2022/05/22 01:54:01;;;;;;;19.02;11.13;;;;;;;;;;7330562;19;153891;-18
2022/05/22 01:56:35;;;;;;;18.35;12.18;;;;;;;;;;7332075;19;162121;-18
2022/05/22 01:59:08;;;;;;;19.08;12.13;;;;;;;;;;7330591;19;162712;-19
2022/05/22 02:01:48;;;;;;;16.80;10.65;;;;;;;;;;7331426;19;153781;-18
2022/05/22 02:04:19;;;;;;;21.57;11.93;;;;;;;;;;7328930;19;153579;-19
2022/05/22 02:09:38;;;;;;;17.77;10.68;;;;;;;;;;7329795;19;162490;-19
2022/05/22 02:12:10;;;;;;;15.57;11.10;;;;;;;;;;7330758;19;154003;-19
2022/05/22 02:14:42;;;;;;;18.17;11.57;;;;;;;;;;7332281;19;153833;-19
2022/05/22 02:17:18;;;;;;;13.98;10.63;;;;;;;;;;7329981;19;161902;-18
2022/05/22 02:19:58;;;;;;;18.60;12.23;;;;;;;;;;7330820;19;162357;-19
2022/05/22 02:22:58;;;;;;;17.85;11.45;;;;;;;;;;7331165;19;154734;-19
2022/05/22 02:25:37;;;;;;;16.30;11.32;;;;;;;;;;7329964;19;153944;-18
2022/05/22 02:28:14;;;;;;;14.23;10.18;;;;;;;;;;7336405;19;161904;-18
2022/05/22 02:30:48;;;;;;;17.35;10.80;;;;;;;;;;7337042;19;162541;-19
2022/05/22 02:33:20;;;;;;;15.10;10.10;;;;;;;;;;7337151;19;154032;-19
2022/05/22 02:36:00;;;;;;;17.42;10.60;;;;;;;;;;7336934;19;153634;-19
2022/05/22 02:38:38;;;;;;;17.67;11.82;;;;;;;;;;7336637;19;161986;-19
2022/05/22 02:41:17;;;;;;;15.27;10.88;;;;;;;;;;7337083;19;162460;-19
2022/05/22 02:43:59;;;;;;;15.70;10.77;;;;;;;;;;7335913;19;154300;-19
2022/05/22 02:46:31;;;;;;;15.52;10.23;;;;;;;;;;7336708;19;153623;-19
2022/05/22 02:49:02;;;;;;;16.70;10.45;;;;;;;;;;7336634;19;162103;-21
2022/05/22 02:51:40;;;;;;;16.80;10.88;;;;;;;;;;7336844;19;162230;-19
2022/05/22 02:54:11;;;;;;;17.00;10.65;;;;;;;;;;7338021;19;154345;-19
2022/05/22 02:56:58;;;;;;;17.02;10.52;;;;;;;;;;7336707;19;154271;-18
2022/05/22 02:59:42;;;;;;;15.80;9.98;;;;;;;;;;7336307;19;162050;-19
2022/05/22 03:02:31;;;;;;;15.15;9.93;;;;;;;;;;7335740;19;162111;-18
2022/05/22 03:05:03;;;;;;;13.38;9.25;;;;;;;;;;7334199;19;154199;-18
2022/05/22 03:07:37;;;;;;;15.07;10.15;;;;;;;;;;7335930;19;153777;-19
2022/05/22 03:10:28;;;;;;;12.95;9.45;;;;;;;;;;7337045;19;161669;-18
2022/05/22 03:13:02;;;;;;;15.57;9.48;;;;;;;;;;7333544;19;162375;-17
2022/05/22 03:15:38;;;;;;;15.35;9.93;;;;;;;;;;7332889;19;154747;-19
2022/05/22 03:18:10;;;;;;;14.50;9.95;;;;;;;;;;7333976;19;153570;-19
2022/05/22 03:20:42;;;;;;;15.05;9.80;;;;;;;;;;7332562;19;161831;-18
2022/05/22 03:23:13;;;;;;;14.60;9.95;;;;;;;;;;7332198;19;162761;-19
2022/05/22 03:25:47;;;;;;;14.65;9.75;;;;;;;;;;7330203;19;154214;-18
2022/05/22 03:28:23;;;;;;;15.30;11.20;;;;;;;;;;7332762;19;153585;-26
2022/05/22 03:30:54;;;;;;;16.13;10.02;;;;;;;;;;7331989;19;161807;-19
2022/05/22 03:33:27;;;;;;;17.70;9.93;;;;;;;;;;7332050;19;162522;-20
2022/05/22 03:35:58;;;;;;;14.80;9.85;;;;;;;;;;7332377;19;154085;-17
2022/05/22 03:38:30;;;;;;;14.48;9.82;;;;;;;;;;7332049;19;153570;-17
2022/05/22 03:41:07;;;;;;;14.90;9.68;;;;;;;;;;7331816;19;161988;-16
2022/05/22 03:43:45;;;;;;;13.93;9.77;;;;;;;;;;7331421;19;162456;-16
2022/05/22 03:46:33;;;;;;;12.93;9.35;;;;;;;;;;7332034;19;154124;-17
2022/05/22 03:49:05;;;;;;;14.43;9.57;;;;;;;;;;7331768;19;154272;-16
2022/05/22 03:51:41;;;;;;;11.88;9.05;;;;;;;;;;7332340;19;161835;-17
2022/05/22 03:54:17;;;;;;;13.32;9.98;;;;;;;;;;7331066;19;162438;-17
2022/05/22 03:56:51;;;;;;;14.38;9.70;;;;;;;;;;7331752;19;154169;-17
2022/05/22 03:59:35;;;;;;;13.90;9.85;;;;;;;;;;7331493;19;153584;-17
2022/05/22 04:02:08;;;;;;;15.25;9.23;;;;;;;;;;7330988;19;162078;-18
2022/05/22 04:04:40;;;;;;;13.68;9.38;;;;;;;;;;7330156;19;162464;-17
2022/05/22 04:07:21;;;;;;;14.30;9.48;;;;;;;;;;7331374;19;154041;-17
2022/05/22 04:09:56;;;;;;;12.93;9.13;;;;;;;;;;7329726;19;153917;-17
2022/05/22 04:12:42;;;;;;;13.98;9.38;;;;;;;;;;7331046;19;162099;-17
2022/05/22 04:15:19;;;;;;;14.27;9.75;;;;;;;;;;7330903;19;162701;-17
2022/05/22 04:17:53;;;;;;;13.45;8.65;;;;;;;;;;7331012;19;154187;-17
2022/05/22 04:20:28;;;;;;;11.40;7.88;;;;;;;;;;7331015;19;153644;-17
2022/05/22 04:26:08;;;;;;;11.82;7.78;;;;;;;;;;7327991;19;162488;-17
2022/05/22 04:28:40;;;;;;;12.15;8.32;;;;;;;;;;7331869;19;154157;-17
2022/05/22 04:31:23;;;;;;;14.13;8.93;;;;;;;;;;7330513;19;153535;-17
2022/05/22 04:34:23;;;;;;;12.40;8.20;;;;;;;;;;7330269;19;161740;-17
2022/05/22 04:37:08;;;;;;;11.30;8.18;;;;;;;;;;7330290;19;162497;-18
2022/05/22 04:39:47;;;;;;;10.75;8.48;;;;;;;;;;7330509;19;154060;-17
2022/05/22 04:42:18;;;;;;;12.05;8.38;;;;;;;;;;7330425;19;153645;-17
2022/05/22 04:44:50;;;;;;;11.45;8.77;;;;;;;;;;7329330;19;161965;-17
2022/05/22 04:47:30;;;;;;;10.02;8.10;;;;;;;;;;7330937;19;162541;-17
2022/05/22 04:50:17;;;;;;;13.63;9.50;;;;;;;;;;7329890;19;154100;-17
2022/05/22 04:53:08;;;;;;;12.85;8.77;;;;;;;;;;7331164;19;153684;-17
2022/05/22 04:56:06;;;;;;;12.95;8.48;;;;;;;;;;7330365;19;162177;-18
2022/05/22 04:58:49;;;;;;;11.63;8.23;;;;;;;;;;7329606;19;162628;-17
2022/05/22 05:01:21;;;;;;;12.25;7.55;;;;;;;;;;7329538;19;154303;-17
2022/05/22 05:04:21;;;;;;;13.15;8.80;;;;;;;;;;7334171;19;153546;-17
2022/05/22 05:07:19;;;;;;;9.35;7.18;;;;;;;;;;7331704;19;161794;-17
2022/05/22 05:09:50;;;;;;;13.05;9.20;;;;;;;;;;7329393;19;162699;-17
2022/05/22 05:12:44;;;;;;;10.90;7.80;;;;;;;;;;7326801;19;156940;-18
2022/05/22 05:15:32;;;;;;;11.50;8.00;;;;;;;;;;7330333;19;153533;-18
2022/05/22 05:18:17;;;;;;;10.00;6.93;;;;;;;;;;7328615;19;162443;-18
2022/05/22 05:20:52;;;;;;;13.02;8.18;;;;;;;;;;7328615;19;162416;-18
2022/05/22 05:23:23;;;;;;;12.68;7.72;;;;;;;;;;7329203;19;154115;-18
2022/05/22 05:26:11;;;;;;;12.20;8.65;;;;;;;;;;7327361;19;153521;-18
2022/05/22 05:28:42;;;;;;;10.73;7.87;;;;;;;;;;7328298;19;161881;-18
2022/05/22 05:31:15;;;;;;;9.63;7.03;;;;;;;;;;7328736;19;162576;-18
2022/05/22 05:33:47;;;;;;;11.02;8.27;;;;;;;;;;7328887;19;154171;-18
2022/05/22 05:36:36;;;;;;;11.02;7.78;;;;;;;;;;7328644;19;153772;-18
2022/05/22 05:39:31;;;;;;;10.85;7.78;;;;;;;;;;7328341;19;161975;-18
2022/05/22 05:42:09;;;;;;;11.23;7.80;;;;;;;;;;7328102;19;162431;-18
2022/05/22 05:44:41;;;;;;;9.48;7.15;;;;;;;;;;7328624;19;154119;-18
2022/05/22 05:47:31;;;;;;;10.82;7.88;;;;;;;;;;7328277;19;153279;-19
2022/05/22 05:50:13;;;;;;;10.73;7.47;;;;;;;;;;7327915;19;161883;-17
2022/05/22 05:53:13;;;;;;;11.98;7.72;;;;;;;;;;7328451;19;162614;-17
2022/05/22 05:55:44;;;;;;;9.80;6.95;;;;;;;;;;7329536;19;153998;-17
2022/05/22 05:58:34;;;;;;;10.75;7.68;;;;;;;;;;7329335;19;153520;-18
2022/05/22 06:01:31;;;;;;;10.65;7.25;;;;;;;;;;7328539;19;162618;-17
2022/05/22 06:04:03;;;;;;;10.75;7.53;;;;;;;;;;7334147;19;162204;-17
2022/05/22 06:06:34;;;;;;;9.43;7.07;;;;;;;;;;7333078;19;154085;-17
2022/05/22 06:09:09;;;;;;;;;;;;;;;;;;7334374;19;153563;-17
2022/05/22 06:11:59;;;;;;;11.07;7.22;;;;;;;;;;7335601;19;162107;-17
2022/05/22 06:14:49;;;;;;;9.75;6.57;;;;;;;;;;7335008;19;162344;-18
2022/05/22 06:17:20;;;;;;;10.23;7.40;;;;;;;;;;7335540;19;154235;-17
2022/05/22 06:19:58;;;;;;;9.95;7.50;;;;;;;;;;7335478;19;153492;-18
2022/05/22 06:22:54;;;;;;;11.73;7.85;;;;;;;;;;7334647;19;164021;-25
2022/05/22 06:25:47;;;;;;;11.23;7.25;;;;;;;;;;7334678;19;162447;-27
2022/05/22 06:28:30;;;;;;;11.45;6.85;;;;;;;;;;7334280;19;154154;-17
2022/05/22 06:31:12;;;;;;;9.52;6.95;;;;;;;;;;7335185;19;153511;-18
2022/05/22 06:34:05;;;;;;;11.25;8.02;;;;;;;;;;7334441;19;161869;-18
2022/05/22 06:36:55;;;;;;;9.68;7.45;;;;;;;;;;7334644;19;162415;-16
2022/05/22 06:39:50;;;;;;;9.13;6.93;;;;;;;;;;7333717;19;154013;-17
2022/05/22 06:42:53;;;;;;;10.63;7.35;;;;;;;;;;7333770;19;153612;-18
2022/05/22 06:45:31;;;;;;;10.82;7.50;;;;;;;;;;7334527;19;161803;-17
2022/05/22 06:48:34;;;;;;;9.35;7.10;;;;;;;;;;7331558;19;162722;-17
2022/05/22 06:51:17;;;;;;;13.27;7.72;;;;;;;;;;7332506;19;154069;-17
2022/05/22 06:54:00;;;;;;;10.13;7.15;;;;;;;;;;7332050;19;153558;-17
2022/05/22 06:56:40;;;;;;;9.52;7.45;;;;;;;;;;7332634;19;161949;-17
2022/05/22 06:59:32;;;;;;;10.18;7.10;;;;;;;;;;7334147;19;162410;-17
2022/05/22 07:02:40;;;;;;;8.52;6.68;;;;;;;;;;7338152;19;153788;-17
2022/05/22 07:05:20;;;;;;;10.57;6.90;;;;;;;;;;7334238;19;153625;-17
2022/05/22 07:08:00;;;;;;;9.25;6.80;;;;;;;;;;7330664;19;161938;-16
2022/05/22 07:13:53;;;;;;;;;;;;;;;;;;7337121;19;154049;-17
2022/05/22 07:16:43;;;;;;;12.13;8.18;;;;;;;;;;7332687;19;153583;-16
2022/05/22 07:19:22;;;;;;;12.50;7.72;;;;;;;;;;7335777;19;162021;-17
2022/05/22 07:22:01;;;;;;;12.57;8.73;;;;;;;;;;7335712;19;162484;-20
2022/05/22 07:25:02;;;;;;;13.95;8.57;;;;;;;;;;7336691;19;154033;-18
2022/05/22 07:28:05;;;;;;;12.77;8.48;;;;;;;;;;7333768;19;153595;-16
2022/05/22 07:31:00;;;;;;;10.23;7.70;;;;;;;;;;7333362;19;162191;-18
2022/05/22 07:34:09;;;;;;;12.25;6.95;;;;;;;;;;7330454;19;162936;-16
2022/05/22 07:37:01;;;;;;;13.48;7.97;;;;;;;;;;7333267;19;154162;-19
2022/05/22 07:39:57;;;;;;;13.40;7.30;;;;;;;;;;7332242;19;153664;-18
2022/05/22 07:42:54;;;;;;;11.75;7.40;;;;;;;;;;7332972;19;161919;-18
2022/05/22 07:45:52;;;;;;;11.93;7.97;;;;;;;;;;7332281;19;162453;-16
2022/05/22 07:48:35;;;;;;;13.48;8.02;;;;;;;;;;7329531;19;154100;-16
2022/05/22 07:51:27;;;;;;;12.20;7.20;;;;;;;;;;7333133;19;153609;-16
2022/05/22 07:54:17;;;;;;;16.73;7.80;;;;;;;;;;7332738;19;162118;-17
2022/05/22 07:57:05;;;;;;;10.65;6.43;;;;;;;;;;7332466;19;162640;-17
2022/05/22 07:59:56;;;;;;;12.80;6.65;;;;;;;;;;7331933;19;154351;-17
2022/05/22 08:02:59;;;;;;;;;;;;;;;;;;7334897;19;153801;-19
2022/05/22 08:05:30;;;;;;;14.85;6.13;;;;;;;;;;7331561;19;162230;-16
2022/05/22 08:08:08;;;;;;;9.45;5.65;;;;;;;;;;7332794;19;162507;-17
2022/05/22 08:11:02;;;;;;;11.57;5.88;;;;;;;;;;7330079;19;154054;-17
2022/05/22 08:13:49;;;;;;;9.45;5.38;;;;;;;;;;7332937;19;153718;-17
2022/05/22 08:16:24;;;;;;;9.18;6.10;;;;;;;;;;7334873;19;162252;-16
2022/05/22 08:19:07;;;;;;;13.80;6.03;;;;;;;;;;7330588;19;162510;-18
2022/05/22 08:21:53;;;;;;;12.45;5.63;;;;;;;;;;7330702;19;153803;-17
2022/05/22 08:24:28;;;;;;;9.50;5.47;;;;;;;;;;7328703;19;153854;-17
2022/05/22 08:27:03;;;;;;;8.68;5.40;;;;;;;;;;7330731;19;161861;-17
2022/05/22 08:29:37;;;;;;;11.10;5.07;;;;;;;;;;7334468;19;162389;-17
2022/05/22 08:32:10;;;;;;;7.68;4.90;;;;;;;;;;7330441;19;154087;-17
2022/05/22 08:34:41;;;;;;;8.33;5.30;;;;;;;;;;7331528;19;153582;-17
2022/05/22 08:37:12;;;;;;;7.43;4.70;;;;;;;;;;7332508;19;161890;-17
2022/05/22 08:39:46;;;;;;;11.30;5.63;;;;;;;;;;7329955;19;162966;-17
2022/05/22 08:42:22;;;;;;;9.10;5.35;;;;;;;;;;7331376;19;154063;-17
2022/05/22 08:44:58;;;;;;;13.20;5.78;;;;;;;;;;7334540;19;153539;-17
2022/05/22 08:47:39;;;;;;;9.73;5.45;;;;;;;;;;7330335;19;161794;-17
2022/05/22 08:50:14;;;;;;;6.47;4.78;;;;;;;;;;7330923;19;162451;-17
2022/05/22 08:52:49;;;;;;;7.55;5.03;;;;;;;;;;7331317;19;154086;-17
2022/05/22 08:58:56;;;;;;;11.07;5.80;;;;;;;;;;7329667;19;153663;-17
2022/05/22 09:01:12;;;;;;;7.85;4.63;;;;;;;;;;7330801;19;162618;-17
2022/05/22 09:03:53;;;;;;;9.20;5.07;;;;;;;;;;7332152;19;154071;-17
2022/05/22 09:06:30;;;;;;;9.30;5.43;;;;;;;;;;7331103;19;153669;-17
2022/05/22 09:09:02;;;;;;;8.00;4.60;;;;;;;;;;7331650;19;161847;-18
2022/05/22 09:11:52;;;;;;;13.48;4.60;;;;;;;;;;7332681;19;162412;-17
2022/05/22 09:14:26;;;;;;;11.13;4.60;;;;;;;;;;7329117;19;154079;-18
2022/05/22 09:17:10;;;;;;;10.38;4.63;;;;;;;;;;7329799;19;132549;-31
2022/05/22 09:19:47;;;;;;;9.60;4.88;;;;;;;;;;7330174;19;161755;-17
2022/05/22 09:22:28;;;;;;;8.45;4.40;;;;;;;;;;7329849;19;162170;-18
2022/05/22 09:25:22;;;;;;;9.57;4.80;;;;;;;;;;7330304;19;154322;-17
2022/05/22 09:28:04;;;;;;;8.40;4.30;;;;;;;;;;7329496;19;153642;-16
2022/05/22 09:30:41;;;;;;;9.68;4.38;;;;;;;;;;7328775;19;161869;-18
2022/05/22 09:33:23;;;;;;;7.20;4.15;;;;;;;;;;7329868;19;162557;-18
2022/05/22 09:36:07;;;;;;;7.35;4.40;;;;;;;;;;7329700;19;154260;-18
2022/05/22 09:38:56;;;;;;;6.93;3.88;;;;;;;;;;7330071;19;153485;-18
2022/05/22 09:41:41;;;;;;;8.10;4.28;;;;;;;;;;7328379;19;161927;-17
2022/05/22 09:44:31;;;;;;;7.20;3.70;;;;;;;;;;7329500;19;162464;-18
2022/05/22 09:47:43;;;;;;;8.13;4.38;;;;;;;;;;7332821;19;154308;-16
2022/05/22 09:50:30;;;;;;;8.40;3.90;;;;;;;;;;7329465;19;154247;-18
2022/05/22 09:53:07;;;;;;;8.00;4.50;;;;;;;;;;7329336;19;161827;-17
2022/05/22 09:55:47;;;;;;;8.40;4.20;;;;;;;;;;7328574;19;162467;-18
2022/05/22 09:58:46;;;;;;;8.60;3.75;;;;;;;;;;7330227;19;154089;-16
2022/05/22 10:01:26;;;;;;;6.30;3.55;;;;;;;;;;7329399;19;153595;-17
2022/05/22 10:04:14;;;;;;;7.00;4.10;;;;;;;;;;7328730;19;161904;-17
2022/05/22 10:06:55;;;;;;;6.00;4.00;;;;;;;;;;7327505;19;162749;-18
2022/05/22 10:09:39;;;;;;;7.03;4.03;;;;;;;;;;7327009;19;154150;-16
2022/05/22 10:12:18;;;;;;;;;;;;;;;;;;7328750;19;153818;-17
2022/05/22 10:15:09;;;;;;;7.25;4.03;;;;;;;;;;7332431;19;162186;-17
2022/05/22 10:18:03;;;;;;;7.72;4.63;;;;;;;;;;7328570;19;162920;-17
2022/05/22 10:20:51;;;;;;;7.13;4.18;;;;;;;;;;7328599;19;154116;-18
2022/05/22 10:23:38;;;;;;;7.10;4.28;;;;;;;;;;7328385;19;153564;-18
2022/05/22 10:26:21;;;;;;;6.07;3.70;;;;;;;;;;7328082;19;161941;-18
2022/05/22 10:28:58;;;;;;;8.43;3.90;;;;;;;;;;7326712;19;162643;-17
2022/05/22 10:31:40;;;;;;;5.70;3.72;;;;;;;;;;7331651;19;153987;-18
2022/05/22 10:34:29;;;;;;;6.47;3.88;;;;;;;;;;7328217;19;153494;-18
2022/05/22 10:37:06;;;;;;;8.38;4.13;;;;;;;;;;7327775;19;161730;-18
2022/05/22 10:39:41;;;;;;;5.65;3.88;;;;;;;;;;7327595;19;162518;-18
2022/05/22 10:45:25;;;;;;;6.25;3.85;;;;;;;;;;7327917;19;153560;-17
2022/05/22 10:47:56;;;;;;;5.50;3.72;;;;;;;;;;7329598;19;161855;-18
2022/05/22 10:50:31;;;;;;;7.00;3.97;;;;;;;;;;7327740;19;162619;-18
2022/05/22 10:53:03;;;;;;;6.43;3.80;;;;;;;;;;7333060;19;154252;-18
2022/05/22 10:55:40;;;;;;;7.25;3.42;;;;;;;;;;7330223;19;153322;-18
2022/05/22 10:58:28;;;;;;;6.63;3.70;;;;;;;;;;7338236;19;161874;-19
2022/05/22 11:01:00;;;;;;;6.63;3.88;;;;;;;;;;7334841;19;163066;-19
2022/05/22 11:03:33;;;;;;;6.35;4.25;;;;;;;;;;7331652;19;154054;-17
2022/05/22 11:06:20;;;;;;;6.70;3.78;;;;;;;;;;7336615;19;154826;-17
2022/05/22 11:08:55;;;;;;;7.00;3.75;;;;;;;;;;7333000;19;162045;-17
2022/05/22 11:11:30;;;;;;;4.75;3.38;;;;;;;;;;7335909;19;162575;-18
2022/05/22 11:14:10;;;;;;;5.00;3.55;;;;;;;;;;7334299;19;155097;-18
2022/05/22 11:16:42;;;;;;;7.28;3.70;;;;;;;;;;7333674;19;153496;-19
2022/05/22 11:19:15;;;;;;;4.63;3.70;;;;;;;;;;7334660;19;161788;-18
2022/05/22 11:22:07;;;;;;;4.95;3.83;;;;;;;;;;7336189;19;162950;-19
2022/05/22 11:24:47;;;;;;;3.85;3.20;;;;;;;;;;7333832;19;154114;-19
2022/05/22 11:27:27;;;;;;;6.65;3.72;;;;;;;;;;7334003;19;153633;-17
2022/05/22 11:30:21;;;;;;;5.72;3.28;;;;;;;;;;7332654;19;161827;-18
2022/05/22 11:33:22;;;;;;;4.88;3.50;;;;;;;;;;7334280;19;162368;-19
2022/05/22 11:36:01;;;;;;;5.68;3.75;;;;;;;;;;7333555;19;154046;-19
2022/05/22 11:38:49;;;;;;;5.13;3.08;;;;;;;;;;7335667;19;153619;-18
2022/05/22 11:41:29;;;;;;;8.57;3.58;;;;;;;;;;7336666;19;161564;-19
2022/05/22 11:44:29;;;;;;;5.30;3.95;;;;;;;;;;7335365;19;162152;-18
2022/05/22 11:47:16;;;;;;;5.45;3.28;;;;;;;;;;7334752;19;154060;-18
2022/05/22 11:49:57;;;;;;;4.72;3.38;;;;;;;;;;7336300;19;153189;-18
2022/05/22 11:55:38;;;;;;;3.85;3.17;;;;;;;;;;7334961;19;162575;-18
2022/05/22 11:58:20;;;;;;;4.75;3.40;;;;;;;;;;7337250;19;154207;-19
2022/05/22 12:01:01;;;;;;;4.60;3.67;;;;;;;;;;7331800;19;153654;-16
2022/05/22 12:03:59;;;;;;;4.82;3.88;;;;;;;;;;7336200;19;163259;-18
2022/05/22 12:06:53;;;;;;;5.38;3.60;;;;;;;;;;7336597;19;162726;-18
2022/05/22 12:09:38;;;;;;;7.78;4.22;;;;;;;;;;7332458;19;154022;-19
2022/05/22 12:12:23;;;;;;;4.40;3.17;;;;;;;;;;7332959;19;153528;-18
2022/05/22 12:15:06;;;;;;;4.47;3.40;;;;;;;;;;7331198;19;161847;-18
2022/05/22 12:17:44;;;;;;;6.03;4.07;;;;;;;;;;7330945;19;163105;-16
2022/05/22 12:20:22;;;;;;;5.65;3.80;;;;;;;;;;7330017;19;154049;-17
2022/05/22 12:23:13;;;;;;;7.32;3.70;;;;;;;;;;7333252;19;153482;-17
2022/05/22 12:25:51;;;;;;;6.15;3.78;;;;;;;;;;7330794;19;161823;-17
2022/05/22 12:28:39;;;;;;;5.28;3.45;;;;;;;;;;7331808;19;162523;-18
2022/05/22 12:31:20;;;;;;;4.57;3.40;;;;;;;;;;7329105;19;154075;-17
2022/05/22 12:33:53;;;;;;;4.88;4.28;;;;;;;;;;7335201;19;153597;-18
2022/05/22 12:36:29;;;;;;;5.25;3.78;;;;;;;;;;7330749;19;161806;-19
2022/05/22 12:39:05;;;;;;;5.53;3.53;;;;;;;;;;7330543;19;162291;-18
2022/05/22 12:41:52;;;;;;;4.15;3.70;;;;;;;;;;7331000;19;154712;-19
2022/05/22 12:44:28;;;;;;;8.15;3.30;;;;;;;;;;7330448;19;153506;-18
2022/05/22 12:47:00;;;;;;;5.70;3.60;;;;;;;;;;7334908;19;161811;-18
2022/05/22 12:49:33;;;;;;;4.55;3.40;;;;;;;;;;7330099;19;162439;-19
2022/05/22 12:52:09;;;;;;;5.00;4.10;;;;;;;;;;7330325;19;154383;-19
2022/05/22 12:54:41;;;;;;;6.03;3.80;;;;;;;;;;7329528;19;153699;-19
2022/05/22 12:57:19;;;;;;;6.47;4.03;;;;;;;;;;7330273;19;161833;-20
2022/05/22 12:59:59;;;;;;;5.68;3.95;;;;;;;;;;7332527;19;163409;-18
2022/05/22 13:02:39;;;;;;;6.78;4.18;;;;;;;;;;7331533;19;154123;-18
2022/05/22 13:05:21;;;;;;;5.43;4.30;;;;;;;;;;7330316;19;153597;-19
2022/05/22 13:07:53;;;;;;;6.38;3.85;;;;;;;;;;7328647;19;161823;-20
2022/05/22 13:10:32;;;;;;;6.05;3.60;;;;;;;;;;7325836;19;162560;-19
2022/05/22 13:13:07;;;;;;;6.32;4.18;;;;;;;;;;7329884;19;154120;-18
2022/05/22 13:15:59;;;;;;;5.43;4.38;;;;;;;;;;7329791;19;153617;-18
2022/05/22 13:18:31;;;;;;;5.40;3.92;;;;;;;;;;7328957;19;161811;-17
2022/05/22 13:21:04;;;;;;;5.77;4.07;;;;;;;;;;7329789;19;162290;-17
2022/05/22 13:23:41;;;;;;;8.20;3.85;;;;;;;;;;7333159;19;154016;-17
2022/05/22 13:26:29;;;;;;;5.78;3.85;;;;;;;;;;7332142;19;153574;-17
2022/05/22 13:29:07;;;;;;;4.30;3.55;;;;;;;;;;7331441;19;161822;-18
2022/05/22 13:31:49;;;;;;;5.35;4.05;;;;;;;;;;7329958;19;162554;-17
2022/05/22 13:34:25;;;;;;;5.72;4.18;;;;;;;;;;7332321;19;154271;-17
2022/05/22 13:37:00;;;;;;;7.00;4.38;;;;;;;;;;7332862;19;153823;-17
2022/05/22 13:39:59;;;;;;;6.40;4.47;;;;;;;;;;7332764;19;161882;-19
2022/05/22 13:43:08;;;;;;;6.05;3.83;;;;;;;;;;7332735;19;162487;-19
2022/05/22 13:46:17;;;;;;;3.90;3.50;;;;;;;;;;7331059;19;154099;-18
2022/05/22 13:49:07;;;;;;;5.30;3.63;;;;;;;;;;7333406;19;153553;-18
2022/05/22 13:54:49;;;;;;;5.80;3.80;;;;;;;;;;7332722;19;162372;-18
2022/05/22 13:57:23;;;;;;;6.45;4.03;;;;;;;;;;7332595;19;154080;-18
2022/05/22 13:59:58;;;;;;;4.22;3.47;;;;;;;;;;7330242;19;153808;-18
2022/05/22 14:02:34;;;;;;;4.88;3.72;;;;;;;;;;7332625;19;162140;-18
2022/05/22 14:05:11;;;;;;;5.43;3.60;;;;;;;;;;7332139;19;162351;-18
2022/05/22 14:07:45;;;;;;;4.80;3.50;;;;;;;;;;7332864;19;154122;-18
2022/05/22 14:10:17;;;;;;;6.80;3.72;;;;;;;;;;7330614;19;153585;-18
2022/05/22 14:12:48;;;;;;;5.75;3.42;;;;;;;;;;7329775;19;162080;-17
2022/05/22 14:15:23;;;;;;;;;;;;;;;;;;7332958;19;162457;-17
2022/05/22 14:17:54;;;;;;;4.13;2.80;;;;;;;;;;7332134;19;154273;-17
2022/05/22 14:20:31;;;;;;;6.68;3.72;;;;;;;;;;7331214;19;153587;-17
2022/05/22 14:23:18;;;;;;;6.00;3.70;;;;;;;;;;7333408;19;162042;-17
2022/05/22 14:25:55;;;;;;;6.15;3.40;;;;;;;;;;7338021;19;162409;-17
2022/05/22 14:28:33;;;;;;;3.85;3.45;;;;;;;;;;7339020;19;154063;-17
2022/05/22 14:31:04;;;;;;;5.13;3.75;;;;;;;;;;7336837;19;153762;-18
2022/05/22 14:33:38;;;;;;;3.90;3.15;;;;;;;;;;7336976;19;162048;-17
2022/05/22 14:36:13;;;;;;;5.10;3.53;;;;;;;;;;7337458;19;162712;-18
2022/05/22 14:38:47;;;;;;;4.75;3.15;;;;;;;;;;7332892;19;154577;-18
2022/05/22 14:41:21;;;;;;;4.28;3.20;;;;;;;;;;7334079;19;153584;-17
2022/05/22 14:43:59;;;;;;;3.55;3.25;;;;;;;;;;7333552;19;162207;-17
2022/05/22 14:46:38;;;;;;;3.55;2.90;;;;;;;;;;7333555;19;162638;-17
2022/05/22 14:49:15;;;;;;;3.65;3.22;;;;;;;;;;7333927;19;154042;-17
2022/05/22 14:51:53;;;;;;;4.53;3.25;;;;;;;;;;7333052;19;153522;-17
2022/05/22 14:54:29;;;;;;;3.40;3.03;;;;;;;;;;7334172;19;161976;-17
2022/05/22 14:57:08;;;;;;;5.35;3.55;;;;;;;;;;7335819;19;162421;-18
2022/05/22 14:59:48;;;;;;;4.78;3.20;;;;;;;;;;7335142;19;154156;-18
2022/05/22 15:02:23;;;;;;;3.53;3.05;;;;;;;;;;7336781;19;155679;-27
2022/05/22 15:04:55;;;;;;;5.53;3.47;;;;;;;;;;7335515;19;161983;-18
2022/05/22 15:07:32;;;;;;;4.75;3.10;;;;;;;;;;7336380;19;162600;-18
2022/05/22 15:10:06;;;;;;;4.30;3.08;;;;;;;;;;7335344;19;154151;-18
2022/05/22 15:12:41;;;;;;;3.33;2.95;;;;;;;;;;7333429;19;153754;-18
2022/05/22 15:15:12;;;;;;;4.55;3.00;;;;;;;;;;7333004;19;161977;-18
2022/05/22 15:18:01;;;;;;;4.15;3.42;;;;;;;;;;7336005;19;162370;-18
2022/05/22 15:20:35;;;;;;;4.13;3.20;;;;;;;;;;7333086;19;154000;-17
2022/05/22 15:26:02;;;;;;;4.38;3.33;;;;;;;;;;7332799;19;161803;-18
2022/05/22 15:28:38;;;;;;;3.90;2.97;;;;;;;;;;7332542;19;162658;-18
2022/05/22 15:31:15;;;;;;;3.42;3.08;;;;;;;;;;7333007;19;153973;-17
2022/05/22 15:33:51;;;;;;;3.20;2.92;;;;;;;;;;7328243;19;153527;-18
2022/05/22 15:36:33;;;;;;;3.78;3.25;;;;;;;;;;7332173;19;162552;-18
2022/05/22 15:39:10;;;;;;;6.03;3.08;;;;;;;;;;7333880;19;162356;-18
2022/05/22 15:42:06;;;;;;;3.65;2.92;;;;;;;;;;7335591;19;153965;-17
2022/05/22 15:44:40;;;;;;;3.90;3.25;;;;;;;;;;7336181;19;153544;-17
2022/05/22 15:47:21;;;;;;;3.28;2.85;;;;;;;;;;7334883;19;161792;-18
2022/05/22 15:52:49;;;;;;;5.03;3.20;;;;;;;;;;7333815;19;154053;-18
2022/05/22 15:55:26;;;;;;;3.03;2.60;;;;;;;;;;7335997;19;153571;-18
2022/05/22 15:57:58;;;;;;;4.30;2.90;;;;;;;;;;7332918;19;162138;-18
2022/05/22 16:00:29;;;;;;;4.72;2.60;;;;;;;;;;7335949;19;162648;-18
2022/05/22 16:03:02;;;;;;;4.57;2.80;;;;;;;;;;7336397;19;154118;-18
2022/05/22 16:05:33;;;;;;;3.50;2.75;;;;;;;;;;7336222;19;153665;-18
2022/05/22 16:08:05;;;;;;;4.55;2.80;;;;;;;;;;7335782;19;161982;-18